createdAt,value
2023-03-04T00:00:50.494Z,100.00
2023-03-04T00:03:22.239Z,100.00
2023-03-04T00:05:53.831Z,100.00
2023-03-04T00:08:25.340Z,100.00
2023-03-04T00:10:56.830Z,100.00
2023-03-04T00:13:28.436Z,100.00
2023-03-04T00:16:00.023Z,100.00
2023-03-04T00:18:31.578Z,100.00
2023-03-04T00:21:03.155Z,100.00
2023-03-04T00:23:34.698Z,100.00
2023-03-04T00:26:06.299Z,100.00
2023-03-04T00:28:38.862Z,100.00
2023-03-04T00:31:10.410Z,100.00
2023-03-04T00:33:44.428Z,100.00
2023-03-04T00:36:16.131Z,100.00
2023-03-04T00:38:48.138Z,100.00
2023-03-04T00:41:19.674Z,100.00
2023-03-04T00:43:51.355Z,100.00
2023-03-04T00:46:22.884Z,100.00
2023-03-04T00:48:54.851Z,100.00
2023-03-04T00:51:26.345Z,100.00
2023-03-04T00:54:00.405Z,100.00
2023-03-04T00:56:32.405Z,100.00
2023-03-04T00:59:04.169Z,100.00
2023-03-04T01:01:35.740Z,100.00
2023-03-04T01:04:07.636Z,100.00
2023-03-04T01:06:39.152Z,100.00
2023-03-04T01:09:10.966Z,100.00
2023-03-04T01:11:42.458Z,100.00
2023-03-04T01:14:14.078Z,100.00
2023-03-04T01:16:45.612Z,100.00
2023-03-04T01:19:17.177Z,100.00
2023-03-04T01:21:48.710Z,100.00
2023-03-04T01:24:20.584Z,100.00
2023-03-04T01:26:52.097Z,100.00
2023-03-04T01:29:23.895Z,100.00
2023-03-04T01:31:55.418Z,100.00
2023-03-04T01:34:27.018Z,100.00
2023-03-04T01:36:58.582Z,100.00
2023-03-04T01:39:30.146Z,100.00
2023-03-04T01:42:01.707Z,100.00
2023-03-04T01:44:33.275Z,100.00
2023-03-04T01:47:04.772Z,100.00
2023-03-04T01:49:36.858Z,100.00
2023-03-04T01:52:08.374Z,100.00
2023-03-04T01:54:40.338Z,100.00
2023-03-04T01:57:11.862Z,100.00
2023-03-04T01:59:43.693Z,100.00
2023-03-04T02:02:15.228Z,100.00
2023-03-04T02:04:47.205Z,100.00
2023-03-04T02:07:18.739Z,100.00
2023-03-04T02:09:50.279Z,100.00
2023-03-04T02:12:21.794Z,100.00
2023-03-04T02:14:53.652Z,100.00
2023-03-04T02:17:25.178Z,100.00
2023-03-04T02:19:57.044Z,100.00
2023-03-04T02:22:28.554Z,100.00
2023-03-04T02:25:00.482Z,100.00
2023-03-04T02:27:32.026Z,100.00
2023-03-04T02:30:03.846Z,100.00
2023-03-04T02:32:35.387Z,100.00
2023-03-04T02:35:07.263Z,100.00
2023-03-04T02:37:38.773Z,100.00
2023-03-04T02:40:10.538Z,100.00
2023-03-04T02:42:42.042Z,100.00
2023-03-04T02:45:13.764Z,100.00
2023-03-04T02:47:45.259Z,100.00
2023-03-04T02:50:17.105Z,100.00
2023-03-04T02:52:48.625Z,100.00
2023-03-04T02:55:20.411Z,100.00
2023-03-04T02:57:51.919Z,100.00
2023-03-04T03:00:23.810Z,100.00
2023-03-04T03:02:57.043Z,100.00
2023-03-04T03:05:28.645Z,100.00
2023-03-04T03:08:00.251Z,100.00
2023-03-04T03:10:31.809Z,100.00
2023-03-04T03:13:03.304Z,100.00
2023-03-04T03:15:35.866Z,100.00
2023-03-04T03:18:07.379Z,100.00
2023-03-04T03:20:39.360Z,100.00
2023-03-04T03:23:10.899Z,100.00
2023-03-04T03:25:42.408Z,100.00
2023-03-04T03:28:13.912Z,100.00
2023-03-04T03:30:45.651Z,100.00
2023-03-04T03:33:17.178Z,100.00
2023-03-04T03:35:49.112Z,100.00
2023-03-04T03:38:20.657Z,100.00
2023-03-04T03:40:52.549Z,100.00
2023-03-04T03:43:24.131Z,100.00
2023-03-04T03:45:55.746Z,100.00
2023-03-04T03:48:27.336Z,100.00
2023-03-04T03:50:59.254Z,100.00
2023-03-04T03:53:30.751Z,100.00
2023-03-04T03:56:02.256Z,100.00
2023-03-04T03:58:33.759Z,100.00
2023-03-04T04:01:05.524Z,100.00
2023-03-04T04:03:37.045Z,100.00
2023-03-04T04:06:08.577Z,100.00
2023-03-04T04:08:40.086Z,100.00
2023-03-04T04:11:11.894Z,100.00
2023-03-04T04:13:43.443Z,100.00
2023-03-04T04:16:15.377Z,100.00
2023-03-04T04:18:46.912Z,100.00
2023-03-04T04:21:18.667Z,100.00
2023-03-04T04:23:50.335Z,100.00
2023-03-04T04:26:21.879Z,100.00
2023-03-04T04:28:53.388Z,100.00
2023-03-04T04:31:25.087Z,100.00
2023-03-04T04:33:56.676Z,100.00
2023-03-04T04:36:28.243Z,100.00
2023-03-04T04:38:59.755Z,100.00
2023-03-04T04:41:31.973Z,100.00
2023-03-04T04:44:03.470Z,100.00
2023-03-04T04:46:35.448Z,100.00
2023-03-04T04:49:07.078Z,100.00
2023-03-04T04:51:39.141Z,100.00
2023-03-04T04:54:10.827Z,100.00
2023-03-04T04:56:42.593Z,100.00
2023-03-04T04:59:14.169Z,100.00
2023-03-04T05:01:45.989Z,100.00
2023-03-04T05:04:17.528Z,100.00
2023-03-04T05:06:49.087Z,100.00
2023-03-04T05:09:22.913Z,100.00
2023-03-04T05:11:54.832Z,100.00
2023-03-04T05:14:26.441Z,100.00
2023-03-04T05:16:58.385Z,100.00
2023-03-04T05:19:29.925Z,100.00
2023-03-04T05:22:01.456Z,100.00
2023-03-04T05:24:33.294Z,100.00
2023-03-04T05:27:04.821Z,100.00
2023-03-04T05:29:36.320Z,100.00
2023-03-04T05:32:08.338Z,100.00
2023-03-04T05:34:39.962Z,100.00
2023-03-04T05:37:11.863Z,100.00
2023-03-04T05:39:43.370Z,100.00
2023-03-04T05:42:15.242Z,100.00
2023-03-04T05:44:46.754Z,100.00
2023-03-04T05:47:18.656Z,100.00
2023-03-04T05:49:50.145Z,100.00
2023-03-04T05:52:22.000Z,100.00
2023-03-04T05:54:53.875Z,100.00
2023-03-04T05:57:25.428Z,100.00
2023-03-04T05:59:56.945Z,100.00
2023-03-04T06:02:28.521Z,100.00
2023-03-04T06:05:00.393Z,100.00
2023-03-04T06:07:31.899Z,100.00
2023-03-04T06:10:03.434Z,100.00
2023-03-04T06:12:34.989Z,100.00
2023-03-04T06:15:07.161Z,100.00
2023-03-04T06:17:41.417Z,100.00
2023-03-04T06:20:13.774Z,100.00
2023-03-04T06:22:45.284Z,100.00
2023-03-04T06:25:17.157Z,100.00
2023-03-04T06:27:50.631Z,100.00
2023-03-04T06:30:22.669Z,100.00
2023-03-04T06:32:54.198Z,100.00
2023-03-04T06:35:26.201Z,100.00
2023-03-04T06:37:57.813Z,100.00
2023-03-04T06:40:29.378Z,100.00
2023-03-04T06:43:00.931Z,100.00
2023-03-04T06:45:32.457Z,100.00
2023-03-04T06:48:03.946Z,100.00
2023-03-04T06:50:35.838Z,100.00
2023-03-04T06:53:07.344Z,100.00
2023-03-04T06:55:39.219Z,100.00
2023-03-04T06:58:10.749Z,100.00
2023-03-04T07:00:42.863Z,100.00
2023-03-04T07:03:14.477Z,100.00
2023-03-04T07:05:46.381Z,100.00
2023-03-04T07:08:18.895Z,100.00
2023-03-04T07:10:51.592Z,100.00
2023-03-04T07:13:23.091Z,100.00
2023-03-04T07:15:54.957Z,100.00
2023-03-04T07:18:26.463Z,100.00
2023-03-04T07:20:58.306Z,100.00
2023-03-04T07:23:29.840Z,100.00
2023-03-04T07:26:01.883Z,100.00
2023-03-04T07:28:33.405Z,100.00
2023-03-04T07:31:05.272Z,100.00
2023-03-04T07:33:36.837Z,100.00
2023-03-04T07:36:08.450Z,100.00
2023-03-04T07:38:39.943Z,100.00
2023-03-04T07:41:11.795Z,100.00
2023-03-04T07:43:43.312Z,100.00
2023-03-04T07:46:14.885Z,100.00
2023-03-04T07:48:46.433Z,100.00
2023-03-04T07:51:18.202Z,100.00
2023-03-04T07:53:49.740Z,100.00
2023-03-04T07:56:21.260Z,100.00
2023-03-04T07:58:53.707Z,100.00
2023-03-04T08:01:25.655Z,100.00
2023-03-04T08:03:57.229Z,100.00
2023-03-04T08:06:28.766Z,100.00
2023-03-04T08:09:00.316Z,100.00
2023-03-04T08:11:32.026Z,100.00
2023-03-04T08:14:03.600Z,100.00
2023-03-04T08:16:35.394Z,100.00
2023-03-04T08:19:06.954Z,100.00
2023-03-04T08:21:38.805Z,100.00
2023-03-04T08:24:10.329Z,100.00
2023-03-04T08:26:42.374Z,100.00
2023-03-04T08:29:13.889Z,100.00
2023-03-04T08:31:48.664Z,100.00
2023-03-04T08:34:20.572Z,100.00
2023-03-04T08:36:52.378Z,100.00
2023-03-04T08:39:23.976Z,100.00
2023-03-04T08:41:55.991Z,100.00
2023-03-04T08:44:27.489Z,100.00
2023-03-04T08:46:59.119Z,100.00
2023-03-04T08:49:30.645Z,100.00
2023-03-04T08:52:02.187Z,100.00
2023-03-04T08:54:33.696Z,100.00
2023-03-04T08:57:08.087Z,100.00
2023-03-04T08:59:39.625Z,100.00
2023-03-04T09:02:11.454Z,100.00
2023-03-04T09:04:43.139Z,100.00
2023-03-04T09:07:14.834Z,100.00
2023-03-04T09:09:46.352Z,100.00
2023-03-04T09:12:17.863Z,100.00
2023-03-04T09:15:01.123Z,100.00
2023-03-04T09:17:40.512Z,100.00
2023-03-04T09:20:12.017Z,100.00
2023-03-04T09:22:43.816Z,100.00
2023-03-04T09:25:15.477Z,100.00
2023-03-04T09:27:47.029Z,100.00
2023-03-04T09:30:18.536Z,100.00
2023-03-04T09:32:50.146Z,100.00
2023-03-04T09:35:21.669Z,100.00
2023-03-04T09:37:53.998Z,100.00
2023-03-04T09:40:25.498Z,100.00
2023-03-04T09:42:58.340Z,100.00
2023-03-04T09:45:29.848Z,100.00
2023-03-04T09:48:01.705Z,100.00
2023-03-04T09:50:33.488Z,100.00
2023-03-04T09:53:05.118Z,100.00
2023-03-04T09:55:36.668Z,100.00
2023-03-04T09:58:08.406Z,100.00
2023-03-04T10:00:40.172Z,100.00
2023-03-04T10:03:11.796Z,100.00
2023-03-04T10:05:43.656Z,100.00
2023-03-04T10:08:15.144Z,95.30
2023-03-04T10:10:47.318Z,93.00
2023-03-04T10:13:18.864Z,92.48
2023-03-04T10:15:54.075Z,89.44
2023-03-04T10:18:25.616Z,86.21
2023-03-04T10:20:57.323Z,86.12
2023-03-04T10:23:28.896Z,84.54
2023-03-04T10:26:00.846Z,82.82
2023-03-04T10:28:32.359Z,82.97
2023-03-04T10:31:04.194Z,82.36
2023-03-04T10:33:35.736Z,80.88
2023-03-04T10:36:07.565Z,80.87
2023-03-04T10:38:39.185Z,81.47
2023-03-04T10:41:11.120Z,79.63
2023-03-04T10:43:45.244Z,79.61
2023-03-04T10:46:16.791Z,79.27
2023-03-04T10:48:48.301Z,78.80
2023-03-04T10:51:20.221Z,78.28
2023-03-04T10:53:51.765Z,76.71
2023-03-04T10:56:23.316Z,75.67
2023-03-04T10:58:54.813Z,74.65
2023-03-04T11:01:26.691Z,73.57
2023-03-04T11:03:58.274Z,73.14
2023-03-04T11:06:31.395Z,73.90
2023-03-04T11:09:03.071Z,73.76
2023-03-04T11:11:35.087Z,71.79
2023-03-04T11:14:06.589Z,72.22
2023-03-04T11:16:38.602Z,71.16
2023-03-04T11:19:10.182Z,70.40
2023-03-04T11:21:41.801Z,70.70
2023-03-04T11:24:27.250Z,70.98
2023-03-04T11:27:00.119Z,70.00
2023-03-04T11:29:31.615Z,70.86
2023-03-04T11:32:03.473Z,71.35
2023-03-04T11:34:35.104Z,72.12
2023-03-04T11:37:06.828Z,73.36
2023-03-04T11:39:38.630Z,74.31
2023-03-04T11:42:10.635Z,75.22
2023-03-04T11:44:42.131Z,72.95
2023-03-04T11:47:13.861Z,73.68
2023-03-04T11:49:45.395Z,73.36
2023-03-04T11:54:58.288Z,72.60
2023-03-04T11:57:29.796Z,71.65
2023-03-04T12:00:01.257Z,71.15
2023-03-04T12:02:32.806Z,70.88
2023-03-04T12:05:04.353Z,71.91
2023-03-04T12:07:36.252Z,72.38
2023-03-04T12:10:07.797Z,72.64
2023-03-04T12:12:39.602Z,72.00
2023-03-04T12:15:11.102Z,71.55
2023-03-04T12:17:42.916Z,72.07
2023-03-04T12:20:14.392Z,72.47
2023-03-04T12:22:45.971Z,72.37
2023-03-04T12:25:18.844Z,72.49
2023-03-04T12:27:51.354Z,73.57
2023-03-04T12:30:22.851Z,73.53
2023-03-04T12:32:54.679Z,72.14
2023-03-04T12:35:26.257Z,72.32
2023-03-04T12:37:58.858Z,71.66
2023-03-04T12:40:30.339Z,71.50
2023-03-04T12:43:02.198Z,71.24
2023-03-04T12:45:33.726Z,70.45
2023-03-04T12:48:05.557Z,71.59
2023-03-04T12:50:38.057Z,72.60
2023-03-04T12:53:10.665Z,72.60
2023-03-04T12:55:42.137Z,72.65
2023-03-04T12:58:13.822Z,71.78
2023-03-04T13:00:45.371Z,71.87
2023-03-04T13:03:17.289Z,71.08
2023-03-04T13:05:48.833Z,68.94
2023-03-04T13:08:20.672Z,70.02
2023-03-04T13:10:52.384Z,69.81
2023-03-04T13:13:24.264Z,69.29
2023-03-04T13:15:55.800Z,69.12
2023-03-04T13:18:27.324Z,68.58
2023-03-04T13:20:59.115Z,70.10
2023-03-04T13:23:31.938Z,70.62
2023-03-04T13:26:03.424Z,70.82
2023-03-04T13:28:34.926Z,69.92
2023-03-04T13:31:06.739Z,71.17
2023-03-04T13:33:38.452Z,71.42
2023-03-04T13:36:11.563Z,71.26
2023-03-04T13:38:43.372Z,70.82
2023-03-04T13:41:14.894Z,70.39
2023-03-04T13:43:46.685Z,71.93
2023-03-04T13:46:18.438Z,72.10
2023-03-04T13:48:50.544Z,73.15
2023-03-04T13:51:29.424Z,73.16
2023-03-04T13:54:03.202Z,73.28
2023-03-04T13:56:37.160Z,72.27
2023-03-04T13:59:09.432Z,72.80
2023-03-04T14:01:40.929Z,71.58
2023-03-04T14:04:12.534Z,70.25
2023-03-04T14:06:44.082Z,69.63
2023-03-04T14:09:15.688Z,69.47
2023-03-04T14:11:47.186Z,70.50
2023-03-04T14:14:18.687Z,70.40
2023-03-04T14:16:50.350Z,69.77
2023-03-04T14:19:22.175Z,70.66
2023-03-04T14:21:53.952Z,70.63
2023-03-04T14:24:25.886Z,70.21
2023-03-04T14:26:57.714Z,70.31
2023-03-04T14:29:31.928Z,69.97
2023-03-04T14:32:04.080Z,69.64
2023-03-04T14:34:36.398Z,68.60
2023-03-04T14:37:08.220Z,68.92
2023-03-04T14:39:39.844Z,68.65
2023-03-04T14:42:11.477Z,67.88
2023-03-04T14:44:44.575Z,68.19
2023-03-04T14:47:17.363Z,67.50
2023-03-04T14:49:48.877Z,67.24
2023-03-04T14:52:20.748Z,67.85
2023-03-04T14:54:52.220Z,68.00
2023-03-04T14:57:24.507Z,67.61
2023-03-04T14:59:56.075Z,68.12
2023-03-04T15:02:31.311Z,68.18
2023-03-04T15:05:02.989Z,68.81
2023-03-04T15:07:34.658Z,69.09
2023-03-04T15:10:06.229Z,69.51
2023-03-04T15:12:38.468Z,69.23
2023-03-04T15:15:09.978Z,68.29
2023-03-04T15:17:42.803Z,67.68
2023-03-04T15:20:14.315Z,67.64
2023-03-04T15:22:46.115Z,67.48
2023-03-04T15:25:20.345Z,67.94
2023-03-04T15:27:54.402Z,68.08
2023-03-04T15:30:27.363Z,69.50
2023-03-04T15:32:59.187Z,69.72
2023-03-04T15:35:30.726Z,69.48
2023-03-04T15:38:02.674Z,69.92
2023-03-04T15:40:34.374Z,69.90
2023-03-04T15:43:05.945Z,69.96
2023-03-04T15:45:38.219Z,70.53
2023-03-04T15:48:10.106Z,70.97
2023-03-04T15:50:41.600Z,71.58
2023-03-04T15:53:13.329Z,71.54
2023-03-04T15:55:44.803Z,71.26
2023-03-04T15:58:16.514Z,71.58
2023-03-04T16:00:48.064Z,71.92
2023-03-04T16:03:20.040Z,72.28
2023-03-04T16:05:51.524Z,72.82
2023-03-04T16:08:25.223Z,72.00
2023-03-04T16:10:56.735Z,72.30
2023-03-04T16:13:28.297Z,71.66
2023-03-04T16:15:59.857Z,71.53
2023-03-04T16:18:31.442Z,71.26
2023-03-04T16:21:04.917Z,71.59
2023-03-04T16:23:37.996Z,71.34
2023-03-04T16:26:09.495Z,70.84
2023-03-04T16:28:41.205Z,70.71
2023-03-04T16:31:12.812Z,71.21
2023-03-04T16:33:45.228Z,70.86
2023-03-04T16:36:16.796Z,71.35
2023-03-04T16:38:48.954Z,71.14
2023-03-04T16:41:20.549Z,71.21
2023-03-04T16:43:52.463Z,72.12
2023-03-04T16:46:24.089Z,72.50
2023-03-04T16:48:55.708Z,71.94
2023-03-04T16:51:27.257Z,73.20
2023-03-04T16:54:00.569Z,74.18
2023-03-04T16:56:32.076Z,73.98
2023-03-04T16:59:03.941Z,73.38
2023-03-04T17:01:36.825Z,73.98
2023-03-04T17:04:08.331Z,74.55
2023-03-04T17:06:40.136Z,73.95
2023-03-04T17:09:12.041Z,75.65
2023-03-04T17:11:43.780Z,73.91
2023-03-04T17:14:15.501Z,74.78
2023-03-04T17:16:47.007Z,74.62
2023-03-04T17:19:19.031Z,75.17
2023-03-04T17:21:50.565Z,75.81
2023-03-04T17:24:22.424Z,75.23
2023-03-04T17:26:53.938Z,76.47
2023-03-04T17:29:26.156Z,76.16
2023-03-04T17:31:57.716Z,75.79
2023-03-04T17:34:29.278Z,76.47
2023-03-04T17:37:01.389Z,76.63
2023-03-04T17:39:32.975Z,76.92
2023-03-04T17:42:04.527Z,77.11
2023-03-04T17:44:36.384Z,77.17
2023-03-04T17:47:07.886Z,77.50
2023-03-04T17:49:39.460Z,77.94
2023-03-04T17:52:11.016Z,78.29
2023-03-04T17:54:42.966Z,78.27
2023-03-04T17:57:14.477Z,78.41
2023-03-04T17:59:46.148Z,78.87
2023-03-04T18:02:17.836Z,78.30
2023-03-04T18:04:50.771Z,79.84
2023-03-04T18:07:22.374Z,79.60
2023-03-04T18:09:54.051Z,79.94
2023-03-04T18:12:25.528Z,79.92
2023-03-04T18:14:57.392Z,79.39
2023-03-04T18:17:28.992Z,79.92
2023-03-04T18:20:02.297Z,79.84
2023-03-04T18:22:33.808Z,79.76
2023-03-04T18:25:05.767Z,80.09
2023-03-04T18:27:39.774Z,80.31
2023-03-04T18:30:11.301Z,79.75
2023-03-04T18:32:51.928Z,80.36
2023-03-04T18:35:24.302Z,80.66
2023-03-04T18:37:55.815Z,81.38
2023-03-04T18:40:27.364Z,80.86
2023-03-04T18:43:00.099Z,81.45
2023-03-04T18:45:31.715Z,81.32
2023-03-04T18:48:03.337Z,81.28
2023-03-04T18:50:35.104Z,81.36
2023-03-04T18:53:06.975Z,81.58
2023-03-04T18:55:38.520Z,82.06
2023-03-04T18:58:10.055Z,82.17
2023-03-04T19:00:41.562Z,82.48
2023-03-04T19:03:13.388Z,82.94
2023-03-04T19:05:45.016Z,83.43
2023-03-04T19:08:16.706Z,82.87
2023-03-04T19:10:48.220Z,83.06
2023-03-04T19:13:22.553Z,83.50
2023-03-04T19:15:54.071Z,83.84
2023-03-04T19:18:26.061Z,83.18
2023-03-04T19:20:57.726Z,83.57
2023-03-04T19:23:29.706Z,83.67
2023-03-04T19:26:01.184Z,83.67
2023-03-04T19:28:32.706Z,83.91
2023-03-04T19:31:04.217Z,83.93
2023-03-04T19:33:35.984Z,84.13
2023-03-04T19:36:07.491Z,84.51
2023-03-04T19:38:39.504Z,83.80
2023-03-04T19:41:11.044Z,84.00
2023-03-04T19:43:42.950Z,83.77
2023-03-04T19:46:14.603Z,84.09
2023-03-04T19:48:46.323Z,84.11
2023-03-04T19:51:17.882Z,84.24
2023-03-04T19:53:51.100Z,84.58
2023-03-04T19:56:22.610Z,84.81
2023-03-04T19:58:54.510Z,84.37
2023-03-04T20:01:28.161Z,85.10
2023-03-04T20:04:00.327Z,84.72
2023-03-04T20:06:31.899Z,85.08
2023-03-04T20:09:03.750Z,84.29
2023-03-04T20:11:41.509Z,84.00
2023-03-04T20:14:22.463Z,84.88
2023-03-04T20:16:54.022Z,84.63
2023-03-04T20:19:25.987Z,84.28
2023-03-04T20:21:57.831Z,84.64
2023-03-04T20:24:29.521Z,84.31
2023-03-04T20:27:01.088Z,84.43
2023-03-04T20:29:32.629Z,84.84
2023-03-04T20:32:04.257Z,85.03
2023-03-04T20:34:36.822Z,84.93
2023-03-04T20:37:08.384Z,85.57
2023-03-04T20:39:40.222Z,85.68
2023-03-04T20:42:12.260Z,86.03
2023-03-04T20:44:44.178Z,85.95
2023-03-04T20:47:15.754Z,86.35
2023-03-04T20:49:47.800Z,86.17
2023-03-04T20:52:19.388Z,86.34
2023-03-04T20:54:51.236Z,86.64
2023-03-04T20:57:22.829Z,87.11
2023-03-04T20:59:54.370Z,87.05
2023-03-04T21:02:25.893Z,87.40
2023-03-04T21:04:57.769Z,86.93
2023-03-04T21:07:29.287Z,87.17
2023-03-04T21:10:01.218Z,86.89
2023-03-04T21:12:32.715Z,87.21
2023-03-04T21:15:04.254Z,87.03
2023-03-04T21:17:35.783Z,86.68
2023-03-04T21:20:07.693Z,87.13
2023-03-04T21:22:39.226Z,86.34
2023-03-04T21:25:11.192Z,86.83
2023-03-04T21:27:43.259Z,87.58
2023-03-04T21:30:15.181Z,86.93
2023-03-04T21:32:46.705Z,88.03
2023-03-04T21:35:19.634Z,88.09
2023-03-04T21:37:51.450Z,87.62
2023-03-04T21:40:23.159Z,88.21
2023-03-04T21:42:54.682Z,87.64
2023-03-04T21:45:26.224Z,87.77
2023-03-04T21:47:57.754Z,87.55
2023-03-04T21:50:29.269Z,87.41
2023-03-04T21:53:00.770Z,87.76
2023-03-04T21:55:32.276Z,87.75
2023-03-04T21:58:03.775Z,87.20
2023-03-04T22:00:35.583Z,87.76
2023-03-04T22:03:07.137Z,87.98
2023-03-04T22:05:38.675Z,88.04
2023-03-04T22:08:10.188Z,87.74
2023-03-04T22:10:41.727Z,87.59
2023-03-04T22:13:13.242Z,88.29
2023-03-04T22:15:45.130Z,87.66
2023-03-04T22:18:16.670Z,87.59
2023-03-04T22:20:48.540Z,88.17
2023-03-04T22:23:21.056Z,87.95
2023-03-04T22:25:52.569Z,88.23
2023-03-04T22:28:28.212Z,87.66
2023-03-04T22:30:59.976Z,88.42
2023-03-04T22:33:37.142Z,88.77
2023-03-04T22:36:08.721Z,89.17
2023-03-04T22:38:40.259Z,88.48
2023-03-04T22:41:11.772Z,88.30
2023-03-04T22:43:43.271Z,88.64
2023-03-04T22:46:15.238Z,88.81
2023-03-04T22:48:46.790Z,89.13
2023-03-04T22:51:18.376Z,89.76
2023-03-04T22:53:50.017Z,89.78
2023-03-04T22:56:21.891Z,89.86
2023-03-04T22:58:53.430Z,89.82
2023-03-04T23:01:25.070Z,91.78
2023-03-04T23:03:56.611Z,92.61
2023-03-04T23:06:30.157Z,93.49
2023-03-04T23:09:01.711Z,94.15
2023-03-04T23:11:35.131Z,95.13
2023-03-04T23:14:07.877Z,95.99
2023-03-04T23:16:42.838Z,96.04
2023-03-04T23:19:14.397Z,96.86
2023-03-04T23:21:46.408Z,97.39
2023-03-04T23:24:19.656Z,97.67
2023-03-04T23:26:52.380Z,98.29
2023-03-04T23:29:24.172Z,98.47
2023-03-04T23:31:55.727Z,98.18
2023-03-04T23:34:27.307Z,98.16
2023-03-04T23:36:58.822Z,98.08
2023-03-04T23:39:30.327Z,98.69
2023-03-04T23:42:01.834Z,98.60
2023-03-04T23:44:33.432Z,98.15
2023-03-04T23:47:04.953Z,98.73
2023-03-04T23:49:36.502Z,98.20
2023-03-04T23:52:08.013Z,98.05
2023-03-04T23:54:40.828Z,98.62
2023-03-04T23:57:12.378Z,100.00
2023-03-04T23:59:44.478Z,100.00
